Summary for KCOGRAND2

Redlands, Southcamp Road & Dakota Circle, Grand Junction, CO 81507
Join the PWSweather.com Network
View data in metric units
Latest Conditions
Updated 10:28:20 AM MDT Wednesday, Aug 20, 2014
Data Currently Today's Max Today's Min Today's Average
Temperature 69.4°F20.8°C 69.4°F20.8°C 61.3°F16.3°C 63.1°F17.3°C
Dew Point 60.8°F16.0°C 63.3°F17.4°C 58.6°F14.8°C 59.9°F15.5°C
Winds 4.0 mph S6.4 kmh S 5.0 mph WNW8.0 kmh WNW CalmCalm 1.9 mph3.1 kmh
Wind Gusts 5.4 mph8.7 kmh 8.7 mph14.0 kmh -- 3.9 mph6.3 kmh
Humidity 74% 91% 74% 89%
Pressure 25.07 in849.0 mb 25.07 in849.0 mb 25.01 in846.9 mb 25.03 in847.6 mb
Precipitation 0.00 in0.0 mm - - 0.00 in0.0 mm
Trends
 
Station Profile
Redlands, Southcamp Road & Dakota CircleGrand Junction, CO 81507

Lat: 39.055, Lon: -108.637
Elevation: 4870
Station Type: RadioShack WX200

Detailed Summary for Wed, Aug 20, 2014
Hour (MDT) Temperature Dew Point Humidity Winds Wind Gusts Pressure Precip Precip Rate Daily Precip Total
10:28 AM 69.4°F20.8°C 60.8°F16.0°C 74% 4.0 mph S6.4 kmh S 5.4 mph8.7 kmh 25.07 in849.0 mb 0.00 in0.0 mm 0.00 in/hr0.0 mm/hr 0.00 in0.0 mm
10:23 AM 68.9°F20.5°C 60.6°F15.9°C 75% 4.0 mph S6.4 kmh S 8.3 mph13.4 kmh 25.07 in849.0 mb 0.00 in0.0 mm 0.00 in/hr0.0 mm/hr 0.00 in0.0 mm
10:18 AM 69.3°F20.7°C 60.6°F15.9°C 74% 4.0 mph S6.4 kmh S 6.9 mph11.1 kmh 25.07 in849.0 mb 0.00 in0.0 mm 0.00 in/hr0.0 mm/hr 0.00 in0.0 mm
10:13 AM 68.4°F20.2°C 60.1°F15.6°C 75% 3.0 mph S4.8 kmh S 7.8 mph12.6 kmh 25.07 in849.0 mb 0.00 in0.0 mm 0.00 in/hr0.0 mm/hr 0.00 in0.0 mm
10:08 AM 68.0°F20.0°C 60.4°F15.8°C 77% 4.0 mph S6.4 kmh S 8.7 mph14.0 kmh 25.07 in849.0 mb 0.00 in0.0 mm 0.00 in/hr0.0 mm/hr 0.00 in0.0 mm
10:03 AM 68.0°F20.0°C 61.5°F16.4°C 80% 4.0 mph S6.4 kmh S 6.7 mph10.8 kmh 25.07 in849.0 mb 0.00 in0.0 mm 0.00 in/hr0.0 mm/hr 0.00 in0.0 mm
09:58 AM 67.5°F19.7°C 61.0°F16.1°C 80% 4.0 mph S6.4 kmh S 6.3 mph10.1 kmh 25.07 in849.0 mb 0.00 in0.0 mm 0.00 in/hr0.0 mm/hr 0.00 in0.0 mm
09:53 AM 67.8°F19.9°C 61.7°F16.5°C 81% 4.0 mph S6.4 kmh S 7.8 mph12.6 kmh 25.07 in849.0 mb 0.00 in0.0 mm 0.00 in/hr0.0 mm/hr 0.00 in0.0 mm
09:48 AM 68.7°F20.4°C 63.3°F17.4°C 83% 2.0 mph S3.2 kmh S 5.8 mph9.3 kmh 25.07 in849.0 mb 0.00 in0.0 mm 0.00 in/hr0.0 mm/hr 0.00 in0.0 mm
09:43 AM 67.5°F19.7°C 62.8°F17.1°C 85% 2.0 mph S3.2 kmh S 5.4 mph8.7 kmh 25.07 in849.0 mb 0.00 in0.0 mm 0.00 in/hr0.0 mm/hr 0.00 in0.0 mm
09:38 AM 67.1°F19.5°C 62.8°F17.1°C 86% 2.0 mph S3.2 kmh S 5.8 mph9.3 kmh 25.07 in849.0 mb 0.00 in0.0 mm 0.00 in/hr0.0 mm/hr 0.00 in0.0 mm
09:33 AM 66.0°F18.9°C 61.7°F16.5°C 86% 1.0 mph S1.6 kmh S 4.9 mph7.9 kmh 25.07 in849.0 mb 0.00 in0.0 mm 0.00 in/hr0.0 mm/hr 0.00 in0.0 mm
09:28 AM 66.2°F19.0°C 62.6°F17.0°C 88% 1.0 mph S1.6 kmh S 3.1 mph5.0 kmh 25.07 in849.0 mb 0.00 in0.0 mm 0.00 in/hr0.0 mm/hr 0.00 in0.0 mm
09:23 AM 65.5°F18.6°C 61.9°F16.6°C 88% 3.0 mph S4.8 kmh S 4.9 mph7.9 kmh 25.07 in849.0 mb 0.00 in0.0 mm 0.00 in/hr0.0 mm/hr 0.00 in0.0 mm
09:18 AM 65.1°F18.4°C 61.5°F16.4°C 88% 3.0 mph S4.8 kmh S 4.5 mph7.2 kmh 25.07 in849.0 mb 0.00 in0.0 mm 0.00 in/hr0.0 mm/hr 0.00 in0.0 mm
09:13 AM 65.1°F18.4°C 61.9°F16.6°C 89% 2.0 mph S3.2 kmh S 4.5 mph7.2 kmh 25.07 in849.0 mb 0.00 in0.0 mm 0.00 in/hr0.0 mm/hr 0.00 in0.0 mm
09:08 AM 64.9°F18.3°C 61.9°F16.6°C 90% 2.0 mph S3.2 kmh S 4.0 mph6.4 kmh 25.07 in849.0 mb 0.00 in0.0 mm 0.00 in/hr0.0 mm/hr 0.00 in0.0 mm
09:03 AM 64.4°F18.0°C 61.3°F16.3°C 90% 3.0 mph S4.8 kmh S 4.5 mph7.2 kmh 25.07 in849.0 mb 0.00 in0.0 mm 0.00 in/hr0.0 mm/hr 0.00 in0.0 mm
08:58 AM 64.4°F18.0°C 61.3°F16.3°C 90% 3.0 mph S4.8 kmh S 4.9 mph7.9 kmh 25.07 in849.0 mb 0.00 in0.0 mm 0.00 in/hr0.0 mm/hr 0.00 in0.0 mm
08:53 AM 64.9°F18.3°C 61.9°F16.6°C 90% 3.0 mph S4.8 kmh S 4.5 mph7.2 kmh 25.07 in849.0 mb 0.00 in0.0 mm 0.00 in/hr0.0 mm/hr 0.00 in0.0 mm
08:48 AM 63.9°F17.7°C 60.8°F16.0°C 90% 4.0 mph S6.4 kmh S 4.5 mph7.2 kmh 25.07 in849.0 mb 0.00 in0.0 mm 0.00 in/hr0.0 mm/hr 0.00 in0.0 mm
08:43 AM 64.2°F17.9°C 61.2°F16.2°C 90% 3.0 mph S4.8 kmh S 5.4 mph8.7 kmh 25.07 in849.0 mb 0.00 in0.0 mm 0.00 in/hr0.0 mm/hr 0.00 in0.0 mm
08:38 AM 64.2°F17.9°C 61.2°F16.2°C 90% 2.0 mph S3.2 kmh S 4.5 mph7.2 kmh 25.07 in849.0 mb 0.00 in0.0 mm 0.00 in/hr0.0 mm/hr 0.00 in0.0 mm
08:33 AM 64.2°F17.9°C 61.2°F16.2°C 90% 1.0 mph S1.6 kmh S 3.6 mph5.8 kmh 25.07 in849.0 mb 0.00 in0.0 mm 0.00 in/hr0.0 mm/hr 0.00 in0.0 mm
08:28 AM 63.5°F17.5°C 60.8°F16.0°C 91% Calm Calm 3.1 mph5.0 kmh 25.07 in849.0 mb 0.00 in0.0 mm 0.00 in/hr0.0 mm/hr 0.00 in0.0 mm
08:23 AM 63.9°F17.7°C 60.8°F16.0°C 90% Calm Calm -- 25.07 in849.0 mb 0.00 in0.0 mm 0.00 in/hr0.0 mm/hr 0.00 in0.0 mm
08:17 AM 63.5°F17.5°C 60.4°F15.8°C 90% Calm Calm -- 25.07 in849.0 mb 0.00 in0.0 mm 0.00 in/hr0.0 mm/hr 0.00 in0.0 mm
08:12 AM 63.5°F17.5°C 60.4°F15.8°C 90% Calm Calm 3.1 mph5.0 kmh 25.04 in848.0 mb 0.00 in0.0 mm 0.00 in/hr0.0 mm/hr 0.00 in0.0 mm
08:07 AM 63.5°F17.5°C 60.4°F15.8°C 90% Calm Calm 2.7 mph4.3 kmh 25.04 in848.0 mb 0.00 in0.0 mm 0.00 in/hr0.0 mm/hr 0.00 in0.0 mm
08:02 AM 63.5°F17.5°C 60.4°F15.8°C 90% Calm Calm -- 25.04 in848.0 mb 0.00 in0.0 mm 0.00 in/hr0.0 mm/hr 0.00 in0.0 mm
07:57 AM 63.1°F17.3°C 60.1°F15.6°C 90% 2.0 mph S3.2 kmh S 3.1 mph5.0 kmh 25.04 in848.0 mb 0.00 in0.0 mm 0.00 in/hr0.0 mm/hr 0.00 in0.0 mm
07:52 AM 63.0°F17.2°C 59.9°F15.5°C 90% 3.0 mph S4.8 kmh S 4.0 mph6.4 kmh 25.04 in848.0 mb 0.00 in0.0 mm 0.00 in/hr0.0 mm/hr 0.00 in0.0 mm
07:47 AM 63.0°F17.2°C 60.3°F15.7°C 91% 3.0 mph S4.8 kmh S 4.9 mph7.9 kmh 25.04 in848.0 mb 0.00 in0.0 mm 0.00 in/hr0.0 mm/hr 0.00 in0.0 mm
07:42 AM 63.0°F17.2°C 60.3°F15.7°C 91% 1.0 mph S1.6 kmh S 4.9 mph7.9 kmh 25.04 in848.0 mb 0.00 in0.0 mm 0.00 in/hr0.0 mm/hr 0.00 in0.0 mm
07:37 AM 63.7°F17.6°C 60.6°F15.9°C 90% Calm Calm 3.1 mph5.0 kmh 25.04 in848.0 mb 0.00 in0.0 mm 0.00 in/hr0.0 mm/hr 0.00 in0.0 mm
07:32 AM 63.5°F17.5°C 60.4°F15.8°C 90% Calm Calm -- 25.04 in848.0 mb 0.00 in0.0 mm 0.00 in/hr0.0 mm/hr 0.00 in0.0 mm
07:27 AM 62.2°F16.8°C 59.5°F15.3°C 91% 1.0 mph NNW1.6 kmh NNW 3.1 mph5.0 kmh 25.04 in848.0 mb 0.00 in0.0 mm 0.00 in/hr0.0 mm/hr 0.00 in0.0 mm
07:22 AM 61.9°F16.6°C 59.2°F15.1°C 91% 2.0 mph NNW3.2 kmh NNW 3.6 mph5.8 kmh 25.04 in848.0 mb 0.00 in0.0 mm 0.00 in/hr0.0 mm/hr 0.00 in0.0 mm
07:17 AM 61.9°F16.6°C 59.2°F15.1°C 91% 2.0 mph NNW3.2 kmh NNW 3.6 mph5.8 kmh 25.04 in848.0 mb 0.00 in0.0 mm 0.00 in/hr0.0 mm/hr 0.00 in0.0 mm
07:12 AM 61.5°F16.4°C 58.8°F14.9°C 91% 1.0 mph NNW1.6 kmh NNW 3.6 mph5.8 kmh 25.04 in848.0 mb 0.00 in0.0 mm 0.00 in/hr0.0 mm/hr 0.00 in0.0 mm
07:07 AM 61.5°F16.4°C 58.8°F14.9°C 91% 1.0 mph NNW1.6 kmh NNW 3.6 mph5.8 kmh 25.04 in848.0 mb 0.00 in0.0 mm 0.00 in/hr0.0 mm/hr 0.00 in0.0 mm
07:02 AM 61.9°F16.6°C 59.2°F15.1°C 91% 1.0 mph NNW1.6 kmh NNW 3.6 mph5.8 kmh 25.04 in848.0 mb 0.00 in0.0 mm 0.00 in/hr0.0 mm/hr 0.00 in0.0 mm
06:57 AM 61.9°F16.6°C 59.2°F15.1°C 91% 2.0 mph NNW3.2 kmh NNW 4.0 mph6.4 kmh 25.04 in848.0 mb 0.00 in0.0 mm 0.00 in/hr0.0 mm/hr 0.00 in0.0 mm
06:52 AM 61.9°F16.6°C 59.2°F15.1°C 91% 2.0 mph NW3.2 kmh NW 3.6 mph5.8 kmh 25.04 in848.0 mb 0.00 in0.0 mm 0.00 in/hr0.0 mm/hr 0.00 in0.0 mm
06:47 AM 61.9°F16.6°C 59.2°F15.1°C 91% 3.0 mph NW4.8 kmh NW 4.5 mph7.2 kmh 25.04 in848.0 mb 0.00 in0.0 mm 0.00 in/hr0.0 mm/hr 0.00 in0.0 mm
06:42 AM 61.9°F16.6°C 59.2°F15.1°C 91% 4.0 mph NW6.4 kmh NW 4.9 mph7.9 kmh 25.04 in848.0 mb 0.00 in0.0 mm 0.00 in/hr0.0 mm/hr 0.00 in0.0 mm
06:37 AM 61.9°F16.6°C 59.2°F15.1°C 91% 2.0 mph NW3.2 kmh NW 5.4 mph8.7 kmh 25.04 in848.0 mb 0.00 in0.0 mm 0.00 in/hr0.0 mm/hr 0.00 in0.0 mm
06:32 AM 61.9°F16.6°C 59.2°F15.1°C 91% 1.0 mph NW1.6 kmh NW 3.6 mph5.8 kmh 25.04 in848.0 mb 0.00 in0.0 mm 0.00 in/hr0.0 mm/hr 0.00 in0.0 mm
06:27 AM 61.5°F16.4°C 58.8°F14.9°C 91% Calm Calm 2.7 mph4.3 kmh 25.04 in848.0 mb 0.00 in0.0 mm 0.00 in/hr0.0 mm/hr 0.00 in0.0 mm
06:22 AM 61.7°F16.5°C 59.0°F15.0°C 91% Calm Calm 2.7 mph4.3 kmh 25.04 in848.0 mb 0.00 in0.0 mm 0.00 in/hr0.0 mm/hr 0.00 in0.0 mm
06:17 AM 61.9°F16.6°C 59.0°F15.0°C 90% 1.0 mph NW1.6 kmh NW -- 25.04 in848.0 mb 0.00 in0.0 mm 0.00 in/hr0.0 mm/hr 0.00 in0.0 mm
06:12 AM 61.9°F16.6°C 59.0°F15.0°C 90% 3.0 mph NW4.8 kmh NW 4.0 mph6.4 kmh 25.04 in848.0 mb 0.00 in0.0 mm 0.00 in/hr0.0 mm/hr 0.00 in0.0 mm
06:07 AM 61.7°F16.5°C 58.8°F14.9°C 90% 4.0 mph NW6.4 kmh NW 4.9 mph7.9 kmh 25.04 in848.0 mb 0.00 in0.0 mm 0.00 in/hr0.0 mm/hr 0.00 in0.0 mm
06:02 AM 61.5°F16.4°C 58.8°F14.9°C 91% 4.0 mph NW6.4 kmh NW 5.8 mph9.3 kmh 25.04 in848.0 mb 0.00 in0.0 mm 0.00 in/hr0.0 mm/hr 0.00 in0.0 mm
05:57 AM 61.3°F16.3°C 58.6°F14.8°C 91% 3.0 mph WNW4.8 kmh WNW 5.4 mph8.7 kmh 25.04 in848.0 mb 0.00 in0.0 mm 0.00 in/hr0.0 mm/hr 0.00 in0.0 mm
05:52 AM 61.7°F16.5°C 58.8°F14.9°C 90% 1.0 mph WNW1.6 kmh WNW 4.0 mph6.4 kmh 25.04 in848.0 mb 0.00 in0.0 mm 0.00 in/hr0.0 mm/hr 0.00 in0.0 mm
05:47 AM 61.7°F16.5°C 59.0°F15.0°C 91% Calm Calm -- 25.04 in848.0 mb 0.00 in0.0 mm 0.00 in/hr0.0 mm/hr 0.00 in0.0 mm
05:42 AM 61.7°F16.5°C 59.0°F15.0°C 91% Calm Calm 2.7 mph4.3 kmh 25.04 in848.0 mb 0.00 in0.0 mm 0.00 in/hr0.0 mm/hr 0.00 in0.0 mm
05:37 AM 61.7°F16.5°C 59.0°F15.0°C 91% 1.0 mph WNW1.6 kmh WNW 3.1 mph5.0 kmh 25.04 in848.0 mb 0.00 in0.0 mm 0.00 in/hr0.0 mm/hr 0.00 in0.0 mm
05:32 AM 61.5°F16.4°C 58.8°F14.9°C 91% 1.0 mph WNW1.6 kmh WNW 3.1 mph5.0 kmh 25.04 in848.0 mb 0.00 in0.0 mm 0.00 in/hr0.0 mm/hr 0.00 in0.0 mm
05:27 AM 61.3°F16.3°C 58.6°F14.8°C 91% 1.0 mph WNW1.6 kmh WNW 3.6 mph5.8 kmh 25.04 in848.0 mb 0.00 in0.0 mm 0.00 in/hr0.0 mm/hr 0.00 in0.0 mm
05:22 AM 61.3°F16.3°C 58.6°F14.8°C 91% Calm Calm 3.1 mph5.0 kmh 25.04 in848.0 mb 0.00 in0.0 mm 0.00 in/hr0.0 mm/hr 0.00 in0.0 mm
05:17 AM 61.3°F16.3°C 58.6°F14.8°C 91% Calm Calm -- 25.04 in848.0 mb 0.00 in0.0 mm 0.00 in/hr0.0 mm/hr 0.00 in0.0 mm
05:12 AM 61.3°F16.3°C 58.6°F14.8°C 91% Calm Calm -- 25.01 in846.9 mb 0.00 in0.0 mm 0.00 in/hr0.0 mm/hr 0.00 in0.0 mm
05:07 AM 61.3°F16.3°C 58.6°F14.8°C 91% Calm Calm -- 25.01 in846.9 mb 0.00 in0.0 mm 0.00 in/hr0.0 mm/hr 0.00 in0.0 mm
05:02 AM 61.3°F16.3°C 58.6°F14.8°C 91% Calm Calm -- 25.01 in846.9 mb 0.00 in0.0 mm 0.00 in/hr0.0 mm/hr 0.00 in0.0 mm
04:57 AM 61.3°F16.3°C 58.6°F14.8°C 91% Calm Calm -- 25.01 in846.9 mb 0.00 in0.0 mm 0.00 in/hr0.0 mm/hr 0.00 in0.0 mm
04:52 AM 61.3°F16.3°C 58.6°F14.8°C 91% 1.0 mph W1.6 kmh W 3.6 mph5.8 kmh 25.01 in846.9 mb 0.00 in0.0 mm 0.00 in/hr0.0 mm/hr 0.00 in0.0 mm
04:47 AM 61.3°F16.3°C 58.6°F14.8°C 91% 2.0 mph W3.2 kmh W 4.5 mph7.2 kmh 25.01 in846.9 mb 0.00 in0.0 mm 0.00 in/hr0.0 mm/hr 0.00 in0.0 mm
04:42 AM 61.5°F16.4°C 58.8°F14.9°C 91% 2.0 mph W3.2 kmh W 3.6 mph5.8 kmh 25.01 in846.9 mb 0.00 in0.0 mm 0.00 in/hr0.0 mm/hr 0.00 in0.0 mm
04:37 AM 61.7°F16.5°C 59.0°F15.0°C 91% 2.0 mph W3.2 kmh W 4.0 mph6.4 kmh 25.01 in846.9 mb 0.00 in0.0 mm 0.00 in/hr0.0 mm/hr 0.00 in0.0 mm
04:32 AM 61.9°F16.6°C 59.0°F15.0°C 90% 2.0 mph W3.2 kmh W 3.1 mph5.0 kmh 25.01 in846.9 mb 0.00 in0.0 mm 0.00 in/hr0.0 mm/hr 0.00 in0.0 mm
04:27 AM 61.9°F16.6°C 59.0°F15.0°C 90% 3.0 mph W4.8 kmh W 4.0 mph6.4 kmh 25.01 in846.9 mb 0.00 in0.0 mm 0.00 in/hr0.0 mm/hr 0.00 in0.0 mm
04:22 AM 61.7°F16.5°C 58.8°F14.9°C 90% 3.0 mph W4.8 kmh W 4.0 mph6.4 kmh 25.01 in846.9 mb 0.00 in0.0 mm 0.00 in/hr0.0 mm/hr 0.00 in0.0 mm
04:17 AM 61.7°F16.5°C 58.8°F14.9°C 90% 2.0 mph W3.2 kmh W 4.5 mph7.2 kmh 25.01 in846.9 mb 0.00 in0.0 mm 0.00 in/hr0.0 mm/hr 0.00 in0.0 mm
04:12 AM 61.9°F16.6°C 59.2°F15.1°C 91% 1.0 mph W1.6 kmh W 3.6 mph5.8 kmh 25.01 in846.9 mb 0.00 in0.0 mm 0.00 in/hr0.0 mm/hr 0.00 in0.0 mm
04:07 AM 62.1°F16.7°C 59.4°F15.2°C 91% 2.0 mph W3.2 kmh W 3.1 mph5.0 kmh 25.01 in846.9 mb 0.00 in0.0 mm 0.00 in/hr0.0 mm/hr 0.00 in0.0 mm
04:02 AM 62.2°F16.8°C 59.2°F15.1°C 90% 3.0 mph WNW4.8 kmh WNW 4.5 mph7.2 kmh 25.01 in846.9 mb 0.00 in0.0 mm 0.00 in/hr0.0 mm/hr 0.00 in0.0 mm
03:57 AM 62.2°F16.8°C 59.2°F15.1°C 90% 2.0 mph W3.2 kmh W 4.0 mph6.4 kmh 25.01 in846.9 mb 0.00 in0.0 mm 0.00 in/hr0.0 mm/hr 0.00 in0.0 mm
03:52 AM 62.2°F16.8°C 59.2°F15.1°C 90% Calm Calm 4.0 mph6.4 kmh 25.01 in846.9 mb 0.00 in0.0 mm 0.00 in/hr0.0 mm/hr 0.00 in0.0 mm
03:47 AM 62.1°F16.7°C 59.0°F15.0°C 90% Calm Calm -- 25.01 in846.9 mb 0.00 in0.0 mm 0.00 in/hr0.0 mm/hr 0.00 in0.0 mm
03:42 AM 62.1°F16.7°C 59.0°F15.0°C 90% 2.0 mph W3.2 kmh W 3.6 mph5.8 kmh 25.01 in846.9 mb 0.00 in0.0 mm 0.00 in/hr0.0 mm/hr 0.00 in0.0 mm
03:37 AM 62.1°F16.7°C 59.4°F15.2°C 91% 3.0 mph WNW4.8 kmh WNW 4.9 mph7.9 kmh 25.01 in846.9 mb 0.00 in0.0 mm 0.00 in/hr0.0 mm/hr 0.00 in0.0 mm
03:32 AM 62.2°F16.8°C 59.2°F15.1°C 90% 3.0 mph WNW4.8 kmh WNW 4.5 mph7.2 kmh 25.01 in846.9 mb 0.00 in0.0 mm 0.00 in/hr0.0 mm/hr 0.00 in0.0 mm
03:27 AM 62.2°F16.8°C 59.2°F15.1°C 90% 4.0 mph WNW6.4 kmh WNW 4.9 mph7.9 kmh 25.01 in846.9 mb 0.00 in0.0 mm 0.00 in/hr0.0 mm/hr 0.00 in0.0 mm
03:22 AM 62.2°F16.8°C 59.5°F15.3°C 91% 3.0 mph W4.8 kmh W 4.9 mph7.9 kmh 25.01 in846.9 mb 0.00 in0.0 mm 0.00 in/hr0.0 mm/hr 0.00 in0.0 mm
03:17 AM 62.4°F16.9°C 59.4°F15.2°C 90% 3.0 mph WNW4.8 kmh WNW 4.5 mph7.2 kmh 25.01 in846.9 mb 0.00 in0.0 mm 0.00 in/hr0.0 mm/hr 0.00 in0.0 mm
03:12 AM 62.4°F16.9°C 59.7°F15.4°C 91% 3.0 mph WNW4.8 kmh WNW 4.5 mph7.2 kmh 25.01 in846.9 mb 0.00 in0.0 mm 0.00 in/hr0.0 mm/hr 0.00 in0.0 mm
03:07 AM 62.6°F17.0°C 59.5°F15.3°C 90% 2.0 mph WNW3.2 kmh WNW 4.5 mph7.2 kmh 25.01 in846.9 mb 0.00 in0.0 mm 0.00 in/hr0.0 mm/hr 0.00 in0.0 mm
03:02 AM 62.6°F17.0°C 59.5°F15.3°C 90% Calm Calm 4.5 mph7.2 kmh 25.01 in846.9 mb 0.00 in0.0 mm 0.00 in/hr0.0 mm/hr 0.00 in0.0 mm
02:57 AM 62.6°F17.0°C 59.9°F15.5°C 91% Calm Calm 3.1 mph5.0 kmh 25.01 in846.9 mb 0.00 in0.0 mm 0.00 in/hr0.0 mm/hr 0.00 in0.0 mm
02:52 AM 62.6°F17.0°C 59.9°F15.5°C 91% 1.0 mph WNW1.6 kmh WNW 3.1 mph5.0 kmh 25.01 in846.9 mb 0.00 in0.0 mm 0.00 in/hr0.0 mm/hr 0.00 in0.0 mm
02:47 AM 62.6°F17.0°C 59.9°F15.5°C 91% 1.0 mph WNW1.6 kmh WNW 4.0 mph6.4 kmh 25.01 in846.9 mb 0.00 in0.0 mm 0.00 in/hr0.0 mm/hr 0.00 in0.0 mm
02:42 AM 62.6°F17.0°C 59.9°F15.5°C 91% Calm Calm 3.1 mph5.0 kmh 25.01 in846.9 mb 0.00 in0.0 mm 0.00 in/hr0.0 mm/hr 0.00 in0.0 mm
02:37 AM 62.6°F17.0°C 59.9°F15.5°C 91% 2.0 mph WNW3.2 kmh WNW 3.1 mph5.0 kmh 25.01 in846.9 mb 0.00 in0.0 mm 0.00 in/hr0.0 mm/hr 0.00 in0.0 mm
02:31 AM 62.8°F17.1°C 60.1°F15.6°C 91% 2.0 mph WNW3.2 kmh WNW 4.5 mph7.2 kmh 25.01 in846.9 mb 0.00 in0.0 mm 0.00 in/hr0.0 mm/hr 0.00 in0.0 mm
02:26 AM 62.8°F17.1°C 59.7°F15.4°C 90% 2.0 mph WNW3.2 kmh WNW 4.0 mph6.4 kmh 25.01 in846.9 mb 0.00 in0.0 mm 0.00 in/hr0.0 mm/hr 0.00 in0.0 mm
02:21 AM 62.6°F17.0°C 59.5°F15.3°C 90% 2.0 mph WNW3.2 kmh WNW 3.6 mph5.8 kmh 25.01 in846.9 mb 0.00 in0.0 mm 0.00 in/hr0.0 mm/hr 0.00 in0.0 mm
02:16 AM 62.4°F16.9°C 59.4°F15.2°C 90% 2.0 mph WNW3.2 kmh WNW 3.1 mph5.0 kmh 25.01 in846.9 mb 0.00 in0.0 mm 0.00 in/hr0.0 mm/hr 0.00 in0.0 mm
02:11 AM 62.6°F17.0°C 59.9°F15.5°C 91% 2.0 mph WNW3.2 kmh WNW 3.1 mph5.0 kmh 25.01 in846.9 mb 0.00 in0.0 mm 0.00 in/hr0.0 mm/hr 0.00 in0.0 mm
02:06 AM 62.6°F17.0°C 59.5°F15.3°C 90% 2.0 mph WNW3.2 kmh WNW 4.0 mph6.4 kmh 25.01 in846.9 mb 0.00 in0.0 mm 0.00 in/hr0.0 mm/hr 0.00 in0.0 mm
02:01 AM 62.6°F17.0°C 59.5°F15.3°C 90% 1.0 mph WNW1.6 kmh WNW 3.1 mph5.0 kmh 25.01 in846.9 mb 0.00 in0.0 mm 0.00 in/hr0.0 mm/hr 0.00 in0.0 mm
01:56 AM 62.4°F16.9°C 59.4°F15.2°C 90% Calm Calm 3.1 mph5.0 kmh 25.01 in846.9 mb 0.00 in0.0 mm 0.00 in/hr0.0 mm/hr 0.00 in0.0 mm
01:51 AM 62.6°F17.0°C 59.5°F15.3°C 90% Calm Calm 3.1 mph5.0 kmh 25.01 in846.9 mb 0.00 in0.0 mm 0.00 in/hr0.0 mm/hr 0.00 in0.0 mm
01:46 AM 62.6°F17.0°C 59.5°F15.3°C 90% Calm Calm 3.1 mph5.0 kmh 25.01 in846.9 mb 0.00 in0.0 mm 0.00 in/hr0.0 mm/hr 0.00 in0.0 mm
01:41 AM 62.4°F16.9°C 59.4°F15.2°C 90% 1.0 mph WNW1.6 kmh WNW 2.7 mph4.3 kmh 25.01 in846.9 mb 0.00 in0.0 mm 0.00 in/hr0.0 mm/hr 0.00 in0.0 mm
01:36 AM 62.6°F17.0°C 59.5°F15.3°C 90% 2.0 mph WNW3.2 kmh WNW 3.6 mph5.8 kmh 25.01 in846.9 mb 0.00 in0.0 mm 0.00 in/hr0.0 mm/hr 0.00 in0.0 mm
01:31 AM 62.4°F16.9°C 59.4°F15.2°C 90% 1.0 mph WNW1.6 kmh WNW 3.6 mph5.8 kmh 25.01 in846.9 mb 0.00 in0.0 mm 0.00 in/hr0.0 mm/hr 0.00 in0.0 mm
01:26 AM 62.6°F17.0°C 59.5°F15.3°C 90% 1.0 mph WNW1.6 kmh WNW 3.6 mph5.8 kmh 25.01 in846.9 mb 0.00 in0.0 mm 0.00 in/hr0.0 mm/hr 0.00 in0.0 mm
01:21 AM 62.6°F17.0°C 59.5°F15.3°C 90% 2.0 mph WNW3.2 kmh WNW 3.6 mph5.8 kmh 25.01 in846.9 mb 0.00 in0.0 mm 0.00 in/hr0.0 mm/hr 0.00 in0.0 mm
01:16 AM 62.6°F17.0°C 59.5°F15.3°C 90% 3.0 mph WNW4.8 kmh WNW 4.0 mph6.4 kmh 25.01 in846.9 mb 0.00 in0.0 mm 0.00 in/hr0.0 mm/hr 0.00 in0.0 mm
01:11 AM 62.8°F17.1°C 59.7°F15.4°C 90% 3.0 mph WNW4.8 kmh WNW 5.4 mph8.7 kmh 25.01 in846.9 mb 0.00 in0.0 mm 0.00 in/hr0.0 mm/hr 0.00 in0.0 mm
01:06 AM 62.8°F17.1°C 59.7°F15.4°C 90% 2.0 mph WNW3.2 kmh WNW 4.0 mph6.4 kmh 25.01 in846.9 mb 0.00 in0.0 mm 0.00 in/hr0.0 mm/hr 0.00 in0.0 mm
01:01 AM 63.0°F17.2°C 59.9°F15.5°C 90% 3.0 mph WNW4.8 kmh WNW 4.5 mph7.2 kmh 25.01 in846.9 mb 0.00 in0.0 mm 0.00 in/hr0.0 mm/hr 0.00 in0.0 mm
12:56 AM 63.0°F17.2°C 59.9°F15.5°C 90% 2.0 mph WNW3.2 kmh WNW 4.9 mph7.9 kmh 25.01 in846.9 mb 0.00 in0.0 mm 0.00 in/hr0.0 mm/hr 0.00 in0.0 mm
12:51 AM 63.0°F17.2°C 60.3°F15.7°C 91% 2.0 mph WNW3.2 kmh WNW 3.6 mph5.8 kmh 25.01 in846.9 mb 0.00 in0.0 mm 0.00 in/hr0.0 mm/hr 0.00 in0.0 mm
12:46 AM 63.0°F17.2°C 60.3°F15.7°C 91% 2.0 mph WNW3.2 kmh WNW 3.6 mph5.8 kmh 25.01 in846.9 mb 0.00 in0.0 mm 0.00 in/hr0.0 mm/hr 0.00 in0.0 mm
12:41 AM 63.0°F17.2°C 60.3°F15.7°C 91% 3.0 mph WNW4.8 kmh WNW 4.5 mph7.2 kmh 25.01 in846.9 mb 0.00 in0.0 mm 0.00 in/hr0.0 mm/hr 0.00 in0.0 mm
12:36 AM 63.1°F17.3°C 60.4°F15.8°C 91% 4.0 mph WNW6.4 kmh WNW 5.4 mph8.7 kmh 25.01 in846.9 mb 0.00 in0.0 mm 0.00 in/hr0.0 mm/hr 0.00 in0.0 mm
12:31 AM 63.1°F17.3°C 60.4°F15.8°C 91% 5.0 mph WNW8.0 kmh WNW 6.3 mph10.1 kmh 25.01 in846.9 mb 0.00 in0.0 mm 0.00 in/hr0.0 mm/hr 0.00 in0.0 mm
12:26 AM 63.5°F17.5°C 60.8°F16.0°C 91% 5.0 mph NW8.0 kmh NW 7.4 mph11.9 kmh 25.01 in846.9 mb 0.00 in0.0 mm 0.00 in/hr0.0 mm/hr 0.00 in0.0 mm
12:21 AM 63.1°F17.3°C 60.1°F15.6°C 90% 4.0 mph NW6.4 kmh NW 6.3 mph10.1 kmh 25.01 in846.9 mb 0.00 in0.0 mm 0.00 in/hr0.0 mm/hr 0.00 in0.0 mm
12:16 AM 63.0°F17.2°C 60.3°F15.7°C 91% 5.0 mph NW8.0 kmh NW 6.3 mph10.1 kmh 25.01 in846.9 mb 0.00 in0.0 mm 0.00 in/hr0.0 mm/hr 0.00 in0.0 mm
12:11 AM 63.3°F17.4°C 60.6°F15.9°C 91% 5.0 mph NW8.0 kmh NW 6.7 mph10.8 kmh 25.01 in846.9 mb 0.00 in0.0 mm 0.00 in/hr0.0 mm/hr 0.00 in0.0 mm
12:06 AM 63.5°F17.5°C 60.4°F15.8°C 90% 4.0 mph NNW6.4 kmh NNW 6.3 mph10.1 kmh 25.01 in846.9 mb 0.00 in0.0 mm 0.00 in/hr0.0 mm/hr 0.00 in0.0 mm
12:01 AM 63.3°F17.4°C 60.3°F15.7°C 90% 3.0 mph NNW4.8 kmh NNW 4.9 mph7.9 kmh 25.01 in846.9 mb 0.00 in0.0 mm 0.00 in/hr0.0 mm/hr 0.00 in0.0 mm
WeatherForYou.com, LLC is not responsible for any damages or problems caused by this service. Current weather conditions are obtained from the closest station including government and personal stations which may have varying degrees of accuracy. Weather forecasts are derived from the NOAA NDFD and obtained through HAMweather's Aeris Weather API. Like all things, this site belongs to Jesus Christ... He just trusts me to maintain it. If you have any questions or comments email webmaster@weatherforyou.com

Copyright © 2014, WeatherForYou.com LLC. All rights reserved.